createdAt,value
2019-06-08T00:01:34.469Z,68.00
2019-06-08T00:04:02.883Z,67.80
2019-06-08T00:06:31.342Z,67.30
2019-06-08T00:08:59.833Z,67.50
2019-06-08T00:11:28.311Z,67.20
2019-06-08T00:13:56.724Z,67.40
2019-06-08T00:16:25.186Z,67.60
2019-06-08T00:18:53.610Z,67.80
2019-06-08T00:21:22.046Z,67.80
2019-06-08T00:23:50.497Z,67.60
2019-06-08T00:26:19.988Z,68.00
2019-06-08T00:28:48.596Z,67.80
2019-06-08T00:31:17.352Z,68.10
2019-06-08T00:33:45.931Z,68.50
2019-06-08T00:36:14.777Z,68.20
2019-06-08T00:38:43.496Z,68.60
2019-06-08T00:41:12.013Z,68.50
2019-06-08T00:43:40.593Z,68.60
2019-06-08T00:46:09.051Z,69.10
2019-06-08T00:48:37.525Z,69.30
2019-06-08T00:51:06.016Z,70.00
2019-06-08T00:53:34.454Z,70.40
2019-06-08T00:56:02.881Z,70.30
2019-06-08T00:58:31.321Z,70.80
2019-06-08T01:00:59.754Z,70.60
2019-06-08T01:03:28.234Z,71.10
2019-06-08T01:05:56.718Z,70.70
2019-06-08T01:08:25.542Z,71.10
2019-06-08T01:10:54.083Z,70.70
2019-06-08T01:13:22.936Z,70.60
2019-06-08T01:15:51.403Z,70.70
2019-06-08T01:18:22.140Z,70.20
2019-06-08T01:20:50.203Z,70.40
2019-06-08T01:23:19.517Z,71.10
2019-06-08T01:25:48.011Z,70.70
2019-06-08T01:28:16.429Z,70.60
2019-06-08T01:30:44.861Z,70.30
2019-06-08T01:33:13.280Z,70.30
2019-06-08T01:35:41.726Z,70.50
2019-06-08T01:38:10.171Z,70.10
2019-06-08T01:40:38.597Z,70.20
2019-06-08T01:43:07.015Z,70.40
2019-06-08T01:45:35.452Z,70.30
2019-06-08T01:48:19.575Z,70.40
2019-06-08T01:50:36.353Z,70.70
2019-06-08T01:53:05.900Z,70.60
2019-06-08T01:55:34.419Z,70.70
2019-06-08T01:58:02.990Z,70.50
2019-06-08T02:00:37.728Z,71.00
2019-06-08T02:03:01.720Z,71.30
2019-06-08T02:05:30.351Z,70.70
2019-06-08T02:07:59.191Z,71.90
2019-06-08T02:10:28.804Z,70.70
2019-06-08T02:12:57.479Z,70.70
2019-06-08T02:15:27.163Z,70.90
2019-06-08T02:17:55.792Z,70.70
2019-06-08T02:20:24.436Z,70.60
2019-06-08T02:22:52.913Z,70.90
2019-06-08T02:25:24.450Z,70.80
2019-06-08T02:27:52.900Z,71.20
2019-06-08T02:30:22.008Z,71.60
2019-06-08T02:32:50.493Z,71.50
2019-06-08T02:35:18.965Z,71.70
2019-06-08T02:37:47.394Z,71.10
2019-06-08T02:40:16.256Z,71.30
2019-06-08T02:42:44.693Z,71.00
2019-06-08T02:45:14.265Z,70.80
2019-06-08T02:47:42.725Z,71.10
2019-06-08T02:50:11.567Z,71.30
2019-06-08T02:52:43.448Z,71.00
2019-06-08T02:55:12.226Z,70.80
2019-06-08T02:57:42.489Z,70.60
2019-06-08T03:00:12.866Z,70.70
2019-06-08T03:02:43.478Z,70.60
2019-06-08T03:05:12.523Z,70.70
2019-06-08T03:07:42.744Z,70.20
2019-06-08T03:10:11.711Z,71.00
2019-06-08T03:12:42.442Z,70.90
2019-06-08T03:15:10.675Z,71.10
2019-06-08T03:17:40.119Z,70.70
2019-06-08T03:20:09.540Z,71.00
2019-06-08T03:22:40.774Z,70.80
2019-06-08T03:25:08.104Z,70.80
2019-06-08T03:27:37.287Z,70.70
2019-06-08T03:30:16.236Z,70.70
2019-06-08T03:32:45.932Z,70.80
2019-06-08T03:35:07.989Z,70.70
2019-06-08T03:37:37.922Z,69.70
2019-06-08T03:40:06.897Z,70.50
2019-06-08T03:42:35.308Z,70.30
2019-06-08T03:45:07.733Z,70.40
2019-06-08T03:47:37.141Z,70.30
2019-06-08T03:50:07.749Z,70.10
2019-06-08T03:52:37.763Z,69.80
2019-06-08T03:55:08.073Z,69.90
2019-06-08T03:57:38.087Z,69.90
2019-06-08T04:00:13.548Z,69.80
2019-06-08T04:02:39.913Z,69.70
2019-06-08T04:05:08.720Z,69.60
2019-06-08T04:07:37.562Z,69.90
2019-06-08T04:10:06.966Z,69.90
2019-06-08T04:12:35.643Z,69.80
2019-06-08T04:15:06.129Z,69.80
2019-06-08T04:17:34.538Z,69.80
2019-06-08T04:20:11.066Z,69.80
2019-06-08T04:22:35.641Z,69.30
2019-06-08T04:25:06.963Z,69.80
2019-06-08T04:27:35.364Z,69.90
2019-06-08T04:30:06.551Z,69.90
2019-06-08T04:32:34.959Z,69.40
2019-06-08T04:35:04.731Z,69.20
2019-06-08T04:37:33.147Z,69.00
2019-06-08T04:40:01.617Z,68.90
2019-06-08T04:42:30.095Z,69.00
2019-06-08T04:44:58.529Z,68.50
2019-06-08T04:47:26.980Z,68.20
2019-06-08T04:49:55.424Z,67.80
2019-06-08T04:52:23.987Z,68.20
2019-06-08T04:54:52.445Z,68.10
2019-06-08T04:57:20.852Z,67.70
2019-06-08T04:59:50.357Z,67.40
2019-06-08T05:02:19.103Z,67.90
2019-06-08T05:04:49.392Z,67.70
2019-06-08T05:07:18.002Z,67.70
2019-06-08T05:09:47.162Z,67.10
2019-06-08T05:12:15.836Z,67.60
2019-06-08T05:14:45.090Z,66.80
2019-06-08T05:17:13.705Z,67.10
2019-06-08T05:19:43.482Z,66.60
2019-06-08T05:22:12.086Z,65.60
2019-06-08T05:24:43.438Z,65.50
2019-06-08T05:27:11.992Z,65.30
2019-06-08T05:29:41.275Z,64.80
2019-06-08T05:32:09.902Z,64.10
2019-06-08T05:34:39.341Z,64.00
2019-06-08T05:37:08.159Z,63.90
2019-06-08T05:39:36.566Z,63.90
2019-06-08T05:42:05.029Z,63.10
2019-06-08T05:44:33.442Z,63.30
2019-06-08T05:47:01.867Z,63.20
2019-06-08T05:49:30.281Z,63.60
2019-06-08T05:51:58.745Z,63.70
2019-06-08T05:54:27.256Z,63.10
2019-06-08T05:56:55.734Z,63.30
2019-06-08T05:59:24.186Z,63.90
2019-06-08T06:01:52.648Z,64.30
2019-06-08T06:04:21.119Z,64.40
2019-06-08T06:06:50.823Z,64.30
2019-06-08T06:09:19.688Z,64.40
2019-06-08T06:11:48.918Z,64.20
2019-06-08T06:14:17.414Z,64.30
2019-06-08T06:16:46.929Z,64.10
2019-06-08T06:19:15.544Z,64.10
2019-06-08T06:21:45.563Z,63.30
2019-06-08T06:24:14.035Z,61.20
2019-06-08T06:26:43.240Z,61.60
2019-06-08T06:29:11.832Z,61.90
2019-06-08T06:31:41.549Z,61.80
2019-06-08T06:34:10.310Z,60.50
2019-06-08T06:36:38.747Z,60.90
2019-06-08T06:39:08.055Z,60.00
2019-06-08T06:41:36.498Z,60.10
2019-06-08T06:44:05.494Z,58.80
2019-06-08T06:46:34.102Z,58.80
2019-06-08T06:49:02.552Z,59.60
2019-06-08T06:51:33.892Z,59.10
2019-06-08T06:54:01.144Z,58.50
2019-06-08T06:56:29.588Z,58.40
2019-06-08T06:58:58.060Z,58.10
2019-06-08T07:01:26.466Z,58.30
2019-06-08T07:03:54.972Z,58.70
2019-06-08T07:06:23.416Z,58.80
2019-06-08T07:08:52.429Z,59.00
2019-06-08T07:11:21.185Z,58.20
2019-06-08T07:13:50.808Z,57.20
2019-06-08T07:16:19.556Z,57.70
2019-06-08T07:18:48.241Z,58.30
2019-06-08T07:21:16.742Z,58.50
2019-06-08T07:23:46.241Z,57.60
2019-06-08T07:26:14.865Z,57.30
2019-06-08T07:28:43.285Z,56.90
2019-06-08T07:31:11.737Z,56.20
2019-06-08T07:33:40.580Z,56.30
2019-06-08T07:36:09.041Z,54.00
2019-06-08T07:38:37.541Z,54.00
2019-06-08T07:41:06.083Z,53.60
2019-06-08T07:43:34.505Z,53.20
2019-06-08T07:46:02.953Z,53.90
2019-06-08T07:48:31.387Z,53.80
2019-06-08T07:50:59.828Z,53.60
2019-06-08T07:53:28.844Z,53.30
2019-06-08T07:55:58.135Z,52.90
2019-06-08T07:58:26.991Z,52.80
2019-06-08T08:00:59.842Z,52.50
2019-06-08T08:03:25.611Z,52.50
2019-06-08T08:05:55.063Z,52.90
2019-06-08T08:08:23.898Z,52.90
2019-06-08T08:10:52.401Z,52.60
2019-06-08T08:13:20.818Z,52.00
2019-06-08T08:15:49.263Z,50.20
2019-06-08T08:18:17.679Z,49.70
2019-06-08T08:20:46.122Z,48.20
2019-06-08T08:23:14.577Z,48.60
2019-06-08T08:25:43.015Z,46.70
2019-06-08T08:28:11.444Z,47.00
2019-06-08T08:30:39.888Z,45.40
2019-06-08T08:33:08.658Z,45.40
2019-06-08T08:35:38.084Z,44.70
2019-06-08T08:38:07.558Z,46.00
2019-06-08T08:40:38.608Z,44.70
2019-06-08T08:43:06.668Z,45.40
2019-06-08T08:45:37.223Z,45.90
2019-06-08T08:48:20.452Z,44.80
2019-06-08T08:50:35.631Z,44.70
2019-06-08T08:53:04.084Z,44.30
2019-06-08T08:55:32.498Z,42.80
2019-06-08T08:58:02.061Z,43.10
2019-06-08T09:00:30.756Z,43.30
2019-06-08T09:03:16.024Z,43.40
2019-06-08T09:05:29.357Z,43.40
2019-06-08T09:07:58.866Z,43.10
2019-06-08T09:10:28.152Z,42.50
2019-06-08T09:13:00.571Z,42.00
2019-06-08T09:15:31.203Z,42.80
2019-06-08T09:17:59.813Z,42.80
2019-06-08T09:20:28.567Z,43.10
2019-06-08T09:23:06.741Z,43.10
2019-06-08T09:25:28.039Z,44.60
2019-06-08T09:28:00.769Z,43.10
2019-06-08T09:30:27.524Z,43.50
2019-06-08T09:32:59.089Z,43.90
2019-06-08T09:35:28.025Z,44.40
2019-06-08T09:38:00.789Z,43.60
2019-06-08T09:40:31.882Z,43.90
2019-06-08T09:43:04.106Z,43.50
2019-06-08T09:45:28.938Z,43.60
2019-06-08T09:48:00.406Z,42.90
2019-06-08T09:50:27.954Z,42.00
2019-06-08T09:53:10.108Z,41.30
2019-06-08T09:55:28.724Z,41.40
2019-06-08T09:58:01.909Z,41.20
2019-06-08T10:00:29.323Z,41.90
2019-06-08T10:03:01.125Z,42.10
2019-06-08T10:05:27.711Z,42.00
2019-06-08T10:07:58.964Z,41.70
2019-06-08T10:10:26.335Z,41.00
2019-06-08T10:12:56.967Z,42.20
2019-06-08T10:15:27.724Z,41.70
2019-06-08T10:17:56.807Z,40.60
2019-06-08T10:20:25.495Z,40.90
2019-06-08T10:22:54.800Z,41.10
2019-06-08T10:25:23.368Z,40.90
2019-06-08T10:27:51.810Z,39.50
2019-06-08T10:30:20.671Z,39.50
2019-06-08T10:32:50.734Z,37.90
2019-06-08T10:35:21.071Z,37.90
2019-06-08T10:37:51.235Z,37.00
2019-06-08T10:40:20.285Z,37.50
2019-06-08T10:42:48.790Z,37.80
2019-06-08T10:45:18.842Z,37.20
2019-06-08T10:47:47.900Z,36.90
2019-06-08T10:50:19.369Z,35.10
2019-06-08T10:52:48.145Z,35.40
2019-06-08T10:55:18.000Z,37.20
2019-06-08T10:57:47.761Z,36.80
2019-06-08T11:00:24.163Z,38.10
2019-06-08T11:02:52.708Z,35.90
2019-06-08T11:05:21.225Z,35.30
2019-06-08T11:07:49.785Z,35.70
2019-06-08T11:10:19.127Z,35.20
2019-06-08T11:12:48.546Z,35.50
2019-06-08T11:15:17.734Z,35.40
2019-06-08T11:17:46.191Z,35.50
2019-06-08T11:20:14.867Z,35.60
2019-06-08T11:22:43.373Z,36.40
2019-06-08T11:25:16.243Z,35.70
2019-06-08T11:27:42.635Z,36.00
2019-06-08T11:30:20.455Z,36.70
2019-06-08T11:32:41.666Z,33.20
2019-06-08T11:35:12.559Z,34.20
2019-06-08T11:37:41.079Z,35.20
2019-06-08T11:40:12.403Z,33.90
2019-06-08T11:42:40.201Z,33.90
2019-06-08T11:45:12.566Z,33.00
2019-06-08T11:47:39.879Z,33.70
2019-06-08T11:50:12.748Z,32.20
2019-06-08T11:52:39.404Z,33.40
2019-06-08T11:55:11.237Z,33.00
2019-06-08T11:57:40.434Z,32.40
2019-06-08T12:00:23.432Z,33.70
2019-06-08T12:02:41.362Z,33.80
2019-06-08T12:05:12.614Z,32.40
2019-06-08T12:07:40.442Z,32.70
2019-06-08T12:10:10.974Z,33.00
2019-06-08T12:12:39.282Z,32.60
2019-06-08T12:15:11.181Z,33.20
2019-06-08T12:17:38.298Z,32.70
2019-06-08T12:20:08.609Z,32.30
2019-06-08T12:22:37.756Z,31.40
2019-06-08T12:25:08.179Z,30.30
2019-06-08T12:27:39.983Z,30.10
2019-06-08T12:30:11.235Z,29.50
2019-06-08T12:32:37.235Z,29.80
2019-06-08T12:35:08.187Z,29.50
2019-06-08T12:37:38.711Z,29.90
2019-06-08T12:40:09.728Z,30.50
2019-06-08T12:42:38.147Z,30.10
2019-06-08T12:45:07.403Z,29.70
2019-06-08T12:47:37.933Z,31.10
2019-06-08T12:50:09.006Z,29.90
2019-06-08T12:52:39.279Z,29.70
2019-06-08T12:55:15.517Z,28.80
2019-06-08T12:57:38.912Z,28.90
2019-06-08T13:00:09.860Z,28.60
2019-06-08T13:02:38.623Z,29.10
2019-06-08T13:05:11.978Z,28.70
2019-06-08T13:07:38.718Z,28.80
2019-06-08T13:10:08.895Z,29.10
2019-06-08T13:12:40.732Z,28.60
2019-06-08T13:15:09.535Z,28.60
2019-06-08T13:17:38.300Z,29.50
2019-06-08T13:20:22.366Z,28.60
2019-06-08T13:22:50.735Z,28.90
2019-06-08T13:25:36.180Z,29.20
2019-06-08T13:27:49.678Z,29.40
2019-06-08T13:30:25.386Z,29.70
2019-06-08T13:32:48.802Z,28.60
2019-06-08T13:35:20.536Z,28.80
2019-06-08T13:37:47.645Z,29.00
2019-06-08T13:40:20.043Z,28.90
2019-06-08T13:42:48.425Z,29.80
2019-06-08T13:45:20.323Z,28.80
2019-06-08T13:47:50.518Z,28.40
2019-06-08T13:50:20.434Z,29.50
2019-06-08T13:52:49.172Z,29.40
2019-06-08T13:55:36.011Z,30.40
2019-06-08T13:57:49.163Z,32.00
2019-06-08T14:00:21.794Z,33.20
2019-06-08T14:02:49.852Z,33.60
2019-06-08T14:05:25.894Z,32.40
2019-06-08T14:07:51.716Z,32.20
2019-06-08T14:10:24.467Z,32.40
2019-06-08T14:12:53.385Z,32.50
2019-06-08T14:15:21.976Z,32.90
2019-06-08T14:17:50.401Z,31.60
2019-06-08T14:20:24.374Z,31.50
2019-06-08T14:22:52.172Z,31.60
2019-06-08T14:25:22.822Z,31.90
2019-06-08T14:27:50.756Z,31.90
2019-06-08T14:30:20.853Z,31.60
2019-06-08T14:32:49.567Z,31.90
2019-06-08T14:35:20.569Z,32.30
2019-06-08T14:37:48.279Z,32.60
2019-06-08T14:40:17.282Z,33.30
2019-06-08T14:42:48.397Z,32.30
2019-06-08T14:45:18.173Z,31.70
2019-06-08T14:47:47.561Z,32.30
2019-06-08T14:50:19.486Z,32.10
2019-06-08T14:52:47.946Z,31.50
2019-06-08T14:55:19.816Z,31.80
2019-06-08T14:57:48.186Z,32.20
2019-06-08T15:00:21.283Z,32.20
2019-06-08T15:02:50.046Z,32.40
2019-06-08T15:05:19.855Z,32.30
2019-06-08T15:07:48.892Z,32.70
2019-06-08T15:10:18.194Z,32.10
2019-06-08T15:12:48.860Z,32.30
2019-06-08T15:15:18.741Z,32.40
2019-06-08T15:17:48.231Z,32.00
2019-06-08T15:20:17.637Z,32.60
2019-06-08T15:22:46.210Z,33.00
2019-06-08T15:25:14.873Z,32.80
2019-06-08T15:27:43.389Z,32.70
2019-06-08T15:30:13.059Z,32.90
2019-06-08T15:32:41.506Z,33.00
2019-06-08T15:35:10.163Z,32.50
2019-06-08T15:37:40.816Z,32.30
2019-06-08T15:40:09.166Z,32.20
2019-06-08T15:42:37.905Z,33.00
2019-06-08T15:45:08.349Z,32.90
2019-06-08T15:47:40.544Z,33.40
2019-06-08T15:50:08.877Z,32.60
2019-06-08T15:52:38.112Z,33.00
2019-06-08T15:55:10.891Z,32.70
2019-06-08T15:57:40.547Z,32.40
2019-06-08T16:00:10.151Z,32.30
2019-06-08T16:02:39.268Z,32.20
2019-06-08T16:05:08.134Z,32.60
2019-06-08T16:07:36.565Z,32.60
2019-06-08T16:10:07.129Z,32.60
2019-06-08T16:12:35.569Z,32.70
2019-06-08T16:15:06.195Z,32.80
2019-06-08T16:17:35.524Z,33.00
2019-06-08T16:20:05.596Z,33.30
2019-06-08T16:22:34.096Z,33.30
2019-06-08T16:25:02.674Z,33.20
2019-06-08T16:27:32.148Z,33.10
2019-06-08T16:30:08.720Z,33.10
2019-06-08T16:32:31.494Z,33.40
2019-06-08T16:35:00.138Z,33.60
2019-06-08T16:37:29.486Z,33.10
2019-06-08T16:39:58.184Z,33.50
2019-06-08T16:42:27.796Z,33.40
2019-06-08T16:44:56.607Z,33.30
2019-06-08T16:47:25.042Z,33.30
2019-06-08T16:49:53.507Z,33.40
2019-06-08T16:52:21.986Z,33.30
2019-06-08T16:54:50.453Z,33.20
2019-06-08T16:57:18.868Z,33.90
2019-06-08T16:59:47.381Z,33.90
2019-06-08T17:02:17.080Z,34.10
2019-06-08T17:04:45.754Z,34.10
2019-06-08T17:07:14.177Z,34.20
2019-06-08T17:09:42.723Z,33.90
2019-06-08T17:12:11.680Z,34.30
2019-06-08T17:14:40.655Z,34.40
2019-06-08T17:17:09.427Z,34.70
2019-06-08T17:19:38.449Z,34.70
2019-06-08T17:22:07.242Z,34.50
2019-06-08T17:24:36.735Z,34.20
2019-06-08T17:27:05.463Z,34.70
2019-06-08T17:29:34.887Z,34.80
2019-06-08T17:32:03.582Z,34.60
2019-06-08T17:34:32.036Z,34.70
2019-06-08T17:37:00.445Z,34.70
2019-06-08T17:39:29.562Z,34.40
2019-06-08T17:41:58.147Z,34.50
2019-06-08T17:44:26.755Z,34.90
2019-06-08T17:46:55.198Z,34.60
2019-06-08T17:49:23.718Z,34.80
2019-06-08T17:51:52.168Z,34.80
2019-06-08T17:54:20.634Z,35.00
2019-06-08T17:56:49.093Z,35.40
2019-06-08T17:59:17.584Z,35.50
2019-06-08T18:01:46.156Z,35.70
2019-06-08T18:04:14.714Z,35.80
2019-06-08T18:06:44.538Z,35.90
2019-06-08T18:09:13.178Z,35.70
2019-06-08T18:11:43.810Z,36.10
2019-06-08T18:14:12.816Z,36.20
2019-06-08T18:16:43.479Z,36.50
2019-06-08T18:19:29.014Z,36.60
2019-06-08T18:22:04.031Z,37.10
2019-06-08T18:24:28.639Z,37.20
2019-06-08T18:26:58.656Z,37.30
2019-06-08T18:29:27.660Z,37.30
2019-06-08T18:31:58.144Z,37.80
2019-06-08T18:34:28.465Z,38.20
2019-06-08T18:36:57.849Z,38.90
2019-06-08T18:39:28.693Z,39.40
2019-06-08T18:41:58.820Z,39.90
2019-06-08T18:44:28.495Z,40.00
2019-06-08T18:46:57.766Z,40.10
2019-06-08T18:49:28.943Z,40.20
2019-06-08T18:51:58.185Z,40.60
2019-06-08T18:54:27.986Z,40.90
2019-06-08T18:56:56.875Z,41.00
2019-06-08T18:59:25.318Z,41.40
2019-06-08T19:01:53.749Z,41.80
2019-06-08T19:04:22.211Z,42.20
2019-06-08T19:06:50.806Z,42.10
2019-06-08T19:09:19.272Z,42.40
2019-06-08T19:11:48.689Z,42.70
2019-06-08T19:14:20.604Z,42.70
2019-06-08T19:16:54.260Z,42.70
2019-06-08T19:19:18.337Z,42.90
2019-06-08T19:21:50.159Z,43.40
2019-06-08T19:24:18.148Z,43.90
2019-06-08T19:26:47.801Z,43.90
2019-06-08T19:29:19.128Z,44.10
2019-06-08T19:31:50.006Z,44.40
2019-06-08T19:34:18.124Z,44.70
2019-06-08T19:36:52.111Z,48.10
2019-06-08T19:39:17.805Z,47.30
2019-06-08T19:41:49.216Z,46.10
2019-06-08T19:44:18.307Z,47.60
2019-06-08T19:46:50.660Z,47.00
2019-06-08T19:49:17.418Z,46.80
2019-06-08T19:51:48.580Z,47.90
2019-06-08T19:54:18.275Z,46.80
2019-06-08T19:56:52.454Z,46.40
2019-06-08T19:59:17.916Z,47.00
2019-06-08T20:01:49.534Z,47.40
2019-06-08T20:04:18.241Z,47.70
2019-06-08T20:06:48.070Z,47.70
2019-06-08T20:09:17.626Z,48.20
2019-06-08T20:11:49.433Z,47.80
2019-06-08T20:14:16.326Z,47.80
2019-06-08T20:16:44.945Z,48.50
2019-06-08T20:19:13.417Z,48.60
2019-06-08T20:21:42.907Z,48.90
2019-06-08T20:24:11.559Z,49.10
2019-06-08T20:26:40.100Z,49.30
2019-06-08T20:29:13.546Z,49.80
2019-06-08T20:31:39.120Z,50.10
2019-06-08T20:34:07.634Z,50.30
2019-06-08T20:36:37.555Z,50.40
2019-06-08T20:39:07.883Z,50.70
2019-06-08T20:41:37.740Z,50.50
2019-06-08T20:44:08.547Z,50.80
2019-06-08T20:46:37.849Z,51.30
2019-06-08T20:49:08.398Z,51.30
2019-06-08T20:51:37.477Z,51.50
2019-06-08T20:54:07.958Z,51.60
2019-06-08T20:56:37.224Z,51.80
2019-06-08T20:59:08.011Z,52.00
2019-06-08T21:01:37.661Z,51.80
2019-06-08T21:04:07.633Z,52.10
2019-06-08T21:06:38.570Z,52.20
2019-06-08T21:09:07.863Z,52.50
2019-06-08T21:11:38.071Z,52.60
2019-06-08T21:14:06.722Z,52.70
2019-06-08T21:16:35.314Z,53.40
2019-06-08T21:19:03.843Z,53.60
2019-06-08T21:21:32.355Z,53.50
2019-06-08T21:24:01.412Z,52.60
2019-06-08T21:26:30.022Z,52.60
2019-06-08T21:29:00.415Z,53.80
2019-06-08T21:31:28.742Z,53.10
2019-06-08T21:34:00.748Z,53.50
2019-06-08T21:36:27.430Z,53.10
2019-06-08T21:39:01.941Z,53.50
2019-06-08T21:41:27.877Z,53.70
2019-06-08T21:44:00.685Z,53.80
2019-06-08T21:46:27.560Z,54.40
2019-06-08T21:48:56.892Z,53.60
2019-06-08T21:51:48.528Z,53.60
2019-06-08T21:54:17.583Z,54.00
2019-06-08T21:56:48.936Z,54.20
2019-06-08T21:59:18.209Z,54.40
2019-06-08T22:01:49.207Z,54.40
2019-06-08T22:04:18.501Z,54.70
2019-06-08T22:06:48.021Z,54.80
2019-06-08T22:09:17.656Z,55.00
2019-06-08T22:11:47.128Z,55.30
2019-06-08T22:14:15.860Z,55.70
2019-06-08T22:16:44.351Z,56.20
2019-06-08T22:19:12.808Z,55.40
2019-06-08T22:21:41.236Z,55.40
2019-06-08T22:24:09.685Z,55.80
2019-06-08T22:26:38.107Z,55.90
2019-06-08T22:29:07.832Z,56.00
2019-06-08T22:31:37.653Z,56.50
2019-06-08T22:34:06.269Z,57.30
2019-06-08T22:36:37.073Z,56.70
2019-06-08T22:39:08.050Z,56.80
2019-06-08T22:41:37.345Z,57.00
2019-06-08T22:44:08.119Z,57.10
2019-06-08T22:46:37.551Z,57.70
2019-06-08T22:49:08.081Z,57.90
2019-06-08T22:51:38.232Z,57.80
2019-06-08T22:54:07.996Z,57.70
2019-06-08T22:56:37.154Z,57.50
2019-06-08T22:59:08.996Z,57.50
2019-06-08T23:01:38.359Z,57.50
2019-06-08T23:04:08.924Z,57.30
2019-06-08T23:06:38.609Z,56.90
2019-06-08T23:09:08.729Z,57.10
2019-06-08T23:11:37.656Z,58.00
2019-06-08T23:14:12.356Z,58.20
2019-06-08T23:16:36.476Z,58.20
2019-06-08T23:19:05.266Z,58.20
2019-06-08T23:21:33.869Z,58.10
2019-06-08T23:24:02.881Z,58.10
2019-06-08T23:26:32.702Z,58.00
2019-06-08T23:29:02.273Z,57.80
2019-06-08T23:31:30.840Z,58.00
2019-06-08T23:34:02.192Z,58.40
2019-06-08T23:36:46.767Z,58.20
2019-06-08T23:39:01.018Z,58.10
2019-06-08T23:41:29.673Z,58.60
2019-06-08T23:43:59.443Z,59.00
2019-06-08T23:46:28.024Z,58.90
2019-06-08T23:48:58.871Z,58.90
2019-06-08T23:51:27.522Z,59.20
2019-06-08T23:53:58.277Z,59.50
2019-06-08T23:56:27.712Z,59.60
2019-06-08T23:58:56.401Z,59.60
